sensor_id;sensor_type;location;lat;lon;timestamp;pressure;altitude;pressure_sealevel;temperature;humidity
19795;BME280;10057;59.402;17.866;2023-03-01T00:01:19;102535.94;;;2.93;65.69
19795;BME280;10057;59.402;17.866;2023-03-01T00:03:46;102527.91;;;2.85;65.88
19795;BME280;10057;59.402;17.866;2023-03-01T00:06:13;102536.50;;;2.79;65.98
19795;BME280;10057;59.402;17.866;2023-03-01T00:08:40;102526.78;;;2.74;65.45
19795;BME280;10057;59.402;17.866;2023-03-01T00:11:10;102534.44;;;2.66;65.45
19795;BME280;10057;59.402;17.866;2023-03-01T00:13:38;102525.53;;;2.58;66.10
19795;BME280;10057;59.402;17.866;2023-03-01T00:16:07;102537.59;;;2.51;66.16
19795;BME280;10057;59.402;17.866;2023-03-01T00:18:34;102533.94;;;2.45;65.80
19795;BME280;10057;59.402;17.866;2023-03-01T00:21:01;102537.41;;;2.44;66.19
19795;BME280;10057;59.402;17.866;2023-03-01T00:23:28;102541.03;;;2.49;66.47
19795;BME280;10057;59.402;17.866;2023-03-01T00:25:55;102528.84;;;2.51;66.06
19795;BME280;10057;59.402;17.866;2023-03-01T00:28:22;102537.69;;;2.54;65.88
19795;BME280;10057;59.402;17.866;2023-03-01T00:30:48;102540.31;;;2.54;66.01
19795;BME280;10057;59.402;17.866;2023-03-01T00:33:15;102537.69;;;2.54;65.95
19795;BME280;10057;59.402;17.866;2023-03-01T00:35:43;102533.31;;;2.55;66.38
19795;BME280;10057;59.402;17.866;2023-03-01T00:38:10;102530.78;;;2.58;66.35
19795;BME280;10057;59.402;17.866;2023-03-01T00:40:37;102533.41;;;2.59;66.11
19795;BME280;10057;59.402;17.866;2023-03-01T00:43:04;102535.16;;;2.59;66.28
19795;BME280;10057;59.402;17.866;2023-03-01T00:45:31;102542.13;;;2.58;65.78
19795;BME280;10057;59.402;17.866;2023-03-01T00:47:59;102535.84;;;2.52;65.87
19795;BME280;10057;59.402;17.866;2023-03-01T00:50:25;102534.75;;;2.42;66.16
19795;BME280;10057;59.402;17.866;2023-03-01T00:52:55;102528.59;;;2.40;66.24
19795;BME280;10057;59.402;17.866;2023-03-01T00:55:23;102519.84;;;2.40;66.57
19795;BME280;10057;59.402;17.866;2023-03-01T00:57:50;102523.31;;;2.38;66.13
19795;BME280;10057;59.402;17.866;2023-03-01T01:00:19;102525.00;;;2.36;66.42
19795;BME280;10057;59.402;17.866;2023-03-01T01:02:46;102522.31;;;2.33;66.21
19795;BME280;10057;59.402;17.866;2023-03-01T01:05:13;102524.06;;;2.33;66.47
19795;BME280;10057;59.402;17.866;2023-03-01T01:07:40;102523.19;;;2.34;66.60
19795;BME280;10057;59.402;17.866;2023-03-01T01:10:07;102521.47;;;2.34;66.37
19795;BME280;10057;59.402;17.866;2023-03-01T01:12:34;102522.31;;;2.33;66.20
19795;BME280;10057;59.402;17.866;2023-03-01T01:15:00;102518.75;;;2.31;66.43
19795;BME280;10057;59.402;17.866;2023-03-01T01:17:27;102521.38;;;2.31;66.39
19795;BME280;10057;59.402;17.866;2023-03-01T01:19:54;102524.00;;;2.31;66.27
19795;BME280;10057;59.402;17.866;2023-03-01T01:22:20;102522.19;;;2.29;66.15
19795;BME280;10057;59.402;17.866;2023-03-01T01:24:47;102516.06;;;2.28;66.24
19795;BME280;10057;59.402;17.866;2023-03-01T01:27:14;102517.84;;;2.29;66.66
19795;BME280;10057;59.402;17.866;2023-03-01T01:29:40;102517.63;;;2.20;66.64
19795;BME280;10057;59.402;17.866;2023-03-01T01:32:08;102514.66;;;2.08;66.29
19795;BME280;10057;59.402;17.866;2023-03-01T01:34:35;102510.91;;;1.98;66.70
19795;BME280;10057;59.402;17.866;2023-03-01T01:37:01;102513.34;;;1.90;66.66
19795;BME280;10057;59.402;17.866;2023-03-01T01:39:29;102508.88;;;1.86;66.87
19795;BME280;10057;59.402;17.866;2023-03-01T01:41:56;102507.88;;;1.81;67.15
19795;BME280;10057;59.402;17.866;2023-03-01T01:44:27;102509.47;;;1.76;67.41
19795;BME280;10057;59.402;17.866;2023-03-01T01:47:02;102512.00;;;1.73;67.01
19795;BME280;10057;59.402;17.866;2023-03-01T01:52:09;102502.13;;;1.63;67.21
19795;BME280;10057;59.402;17.866;2023-03-01T01:54:57;102515.88;;;1.56;67.08
19795;BME280;10057;59.402;17.866;2023-03-01T01:57:31;102520.94;;;1.50;67.51
19795;BME280;10057;59.402;17.866;2023-03-01T02:00:04;102514.66;;;1.43;67.29
19795;BME280;10057;59.402;17.866;2023-03-01T02:02:32;102515.38;;;1.37;67.62
19795;BME280;10057;59.402;17.866;2023-03-01T02:05:09;102519.56;;;1.32;67.82
19795;BME280;10057;59.402;17.866;2023-03-01T02:07:38;102507.25;;;1.28;67.90
19795;BME280;10057;59.402;17.866;2023-03-01T02:10:06;102508.88;;;1.23;68.16
19795;BME280;10057;59.402;17.866;2023-03-01T02:12:34;102502.63;;;1.19;67.82
19795;BME280;10057;59.402;17.866;2023-03-01T02:15:02;102510.44;;;1.18;68.29
19795;BME280;10057;59.402;17.866;2023-03-01T02:17:29;102513.94;;;1.18;68.04
19795;BME280;10057;59.402;17.866;2023-03-01T02:22:35;102500.84;;;1.17;68.25
19795;BME280;10057;59.402;17.866;2023-03-01T02:25:12;102512.09;;;1.14;67.85
19795;BME280;10057;59.402;17.866;2023-03-01T02:27:49;102501.59;;;1.13;68.45
19795;BME280;10057;59.402;17.866;2023-03-01T02:30:19;102496.19;;;1.07;68.30
19795;BME280;10057;59.402;17.866;2023-03-01T02:32:48;102495.94;;;0.99;68.25
19795;BME280;10057;59.402;17.866;2023-03-01T02:35:16;102501.88;;;0.93;68.67
19795;BME280;10057;59.402;17.866;2023-03-01T02:37:44;102493.88;;;0.89;68.73
19795;BME280;10057;59.402;17.866;2023-03-01T02:40:15;102492.97;;;0.87;68.31
19795;BME280;10057;59.402;17.866;2023-03-01T02:42:50;102499.81;;;0.83;68.74
19795;BME280;10057;59.402;17.866;2023-03-01T02:45:18;102490.25;;;0.84;68.63
19795;BME280;10057;59.402;17.866;2023-03-01T02:47:44;102482.38;;;0.82;68.74
19795;BME280;10057;59.402;17.866;2023-03-01T02:50:57;102468.38;;;0.80;68.76
19795;BME280;10057;59.402;17.866;2023-03-01T02:53:58;102487.41;;;0.76;68.97
19795;BME280;10057;59.402;17.866;2023-03-01T02:56:27;102482.97;;;0.74;68.61
19795;BME280;10057;59.402;17.866;2023-03-01T02:58:54;102485.56;;;0.72;69.02
19795;BME280;10057;59.402;17.866;2023-03-01T03:01:27;102482.00;;;0.70;68.97
19795;BME280;10057;59.402;17.866;2023-03-01T03:04:08;102478.44;;;0.68;69.21
19795;BME280;10057;59.402;17.866;2023-03-01T03:06:36;102480.13;;;0.66;69.09
19795;BME280;10057;59.402;17.866;2023-03-01T03:09:04;102478.28;;;0.63;69.48
19795;BME280;10057;59.402;17.866;2023-03-01T03:11:30;102488.78;;;0.65;69.39
19795;BME280;10057;59.402;17.866;2023-03-01T03:13:58;102487.97;;;0.66;69.21
19795;BME280;10057;59.402;17.866;2023-03-01T03:16:25;102471.44;;;0.67;69.08
19795;BME280;10057;59.402;17.866;2023-03-01T03:18:52;102480.22;;;0.69;69.08
19795;BME280;10057;59.402;17.866;2023-03-01T03:21:19;102481.00;;;0.66;69.27
19795;BME280;10057;59.402;17.866;2023-03-01T03:23:46;102482.75;;;0.66;69.41
19795;BME280;10057;59.402;17.866;2023-03-01T03:26:12;102481.75;;;0.62;69.26
19795;BME280;10057;59.402;17.866;2023-03-01T03:28:39;102479.06;;;0.61;69.32
19795;BME280;10057;59.402;17.866;2023-03-01T03:31:07;102478.06;;;0.56;69.75
19795;BME280;10057;59.402;17.866;2023-03-01T03:33:34;102481.56;;;0.56;69.52
19795;BME280;10057;59.402;17.866;2023-03-01T03:36:02;102473.66;;;0.55;69.62
19795;BME280;10057;59.402;17.866;2023-03-01T03:38:29;102470.16;;;0.54;69.76
19795;BME280;10057;59.402;17.866;2023-03-01T03:41:04;102454.38;;;0.51;69.77
19795;BME280;10057;59.402;17.866;2023-03-01T03:43:34;102462.16;;;0.48;69.71
19795;BME280;10057;59.402;17.866;2023-03-01T03:46:01;102460.25;;;0.44;69.69
19795;BME280;10057;59.402;17.866;2023-03-01T03:48:43;102470.56;;;0.39;69.86
19795;BME280;10057;59.402;17.866;2023-03-01T03:51:15;102476.53;;;0.35;70.04
19795;BME280;10057;59.402;17.866;2023-03-01T03:53:43;102476.47;;;0.34;69.91
19795;BME280;10057;59.402;17.866;2023-03-01T03:56:11;102474.69;;;0.31;69.82
19795;BME280;10057;59.402;17.866;2023-03-01T03:58:38;102467.63;;;0.29;69.75
19795;BME280;10057;59.402;17.866;2023-03-01T04:01:05;102470.13;;;0.26;70.26
19795;BME280;10057;59.402;17.866;2023-03-01T04:03:32;102472.59;;;0.21;70.18
19795;BME280;10057;59.402;17.866;2023-03-01T04:06:00;102471.66;;;0.19;70.20
19795;BME280;10057;59.402;17.866;2023-03-01T04:08:28;102466.41;;;0.17;69.88
19795;BME280;10057;59.402;17.866;2023-03-01T04:11:03;102459.44;;;0.18;70.13
19795;BME280;10057;59.402;17.866;2023-03-01T04:13:51;102455.88;;;0.16;70.22
19795;BME280;10057;59.402;17.866;2023-03-01T04:16:18;102456.84;;;0.18;70.31
19795;BME280;10057;59.402;17.866;2023-03-01T04:18:45;102453.28;;;0.16;70.31
19795;BME280;10057;59.402;17.866;2023-03-01T04:21:13;102449.78;;;0.15;70.26
19795;BME280;10057;59.402;17.866;2023-03-01T04:23:39;102451.50;;;0.15;70.36
19795;BME280;10057;59.402;17.866;2023-03-01T04:26:07;102445.41;;;0.14;70.43
19795;BME280;10057;59.402;17.866;2023-03-01T04:28:37;102453.28;;;0.16;70.31
19795;BME280;10057;59.402;17.866;2023-03-01T04:31:07;102455.03;;;0.17;70.57
19795;BME280;10057;59.402;17.866;2023-03-01T04:33:47;102452.50;;;0.18;70.30
19795;BME280;10057;59.402;17.866;2023-03-01T04:36:15;102456.97;;;0.22;70.35
19795;BME280;10057;59.402;17.866;2023-03-01T04:38:43;102454.50;;;0.27;70.59
19795;BME280;10057;59.402;17.866;2023-03-01T04:41:15;102443.13;;;0.25;70.52
19795;BME280;10057;59.402;17.866;2023-03-01T04:43:42;102448.25;;;0.22;70.27
19795;BME280;10057;59.402;17.866;2023-03-01T04:46:12;102451.63;;;0.18;70.62
19795;BME280;10057;59.402;17.866;2023-03-01T04:48:42;102450.66;;;0.16;70.56
19795;BME280;10057;59.402;17.866;2023-03-01T04:51:09;102448.06;;;0.16;70.56
19795;BME280;10057;59.402;17.866;2023-03-01T04:53:41;102448.06;;;0.16;70.75
19795;BME280;10057;59.402;17.866;2023-03-01T04:56:08;102448.00;;;0.14;70.77
19795;BME280;10057;59.402;17.866;2023-03-01T04:58:35;102447.13;;;0.14;70.61
19795;BME280;10057;59.402;17.866;2023-03-01T05:01:08;102438.34;;;0.12;70.60
19795;BME280;10057;59.402;17.866;2023-03-01T05:03:46;102438.16;;;0.06;70.65
19795;BME280;10057;59.402;17.866;2023-03-01T05:06:14;102429.34;;;0.02;70.77
19795;BME280;10057;59.402;17.866;2023-03-01T05:08:41;102431.81;;;-0.03;70.74
19795;BME280;10057;59.402;17.866;2023-03-01T05:11:10;102437.84;;;-0.04;70.79
19795;BME280;10057;59.402;17.866;2023-03-01T05:13:38;102449.09;;;-0.06;70.89
19795;BME280;10057;59.402;17.866;2023-03-01T05:16:07;102442.97;;;-0.07;70.90
19795;BME280;10057;59.402;17.866;2023-03-01T05:18:38;102449.97;;;-0.06;70.99
19795;BME280;10057;59.402;17.866;2023-03-01T05:21:11;102442.03;;;-0.09;71.02
19795;BME280;10057;59.402;17.866;2023-03-01T05:23:38;102445.47;;;-0.10;71.00
19795;BME280;10057;59.402;17.866;2023-03-01T05:26:05;102442.91;;;-0.08;70.98
19795;BME280;10057;59.402;17.866;2023-03-01T05:28:36;102447.47;;;-0.03;70.75
19795;BME280;10057;59.402;17.866;2023-03-01T05:31:04;102456.28;;;0.01;71.03
19795;BME280;10057;59.402;17.866;2023-03-01T05:33:40;102451.09;;;0.03;70.98
19795;BME280;10057;59.402;17.866;2023-03-01T05:36:08;102448.38;;;-0.01;70.59
19795;BME280;10057;59.402;17.866;2023-03-01T05:38:36;102452.59;;;-0.04;70.77
19795;BME280;10057;59.402;17.866;2023-03-01T05:41:03;102455.06;;;-0.09;71.04
19795;BME280;10057;59.402;17.866;2023-03-01T05:43:31;102448.00;;;-0.13;71.03
19795;BME280;10057;59.402;17.866;2023-03-01T05:46:00;102463.53;;;-0.16;71.01
19795;BME280;10057;59.402;17.866;2023-03-01T05:48:27;102452.88;;;-0.22;71.14
19795;BME280;10057;59.402;17.866;2023-03-01T05:50:54;102453.63;;;-0.26;71.26
19795;BME280;10057;59.402;17.866;2023-03-01T05:53:20;102455.28;;;-0.28;71.22
19795;BME280;10057;59.402;17.866;2023-03-01T05:55:47;102450.03;;;-0.30;71.34
19795;BME280;10057;59.402;17.866;2023-03-01T05:58:16;102449.13;;;-0.30;71.53
19795;BME280;10057;59.402;17.866;2023-03-01T06:00:45;102444.84;;;-0.28;71.55
19795;BME280;10057;59.402;17.866;2023-03-01T06:03:14;102450.06;;;-0.28;71.26
19795;BME280;10057;59.402;17.866;2023-03-01T06:05:42;102443.09;;;-0.28;71.41
19795;BME280;10057;59.402;17.866;2023-03-01T06:08:10;102435.25;;;-0.29;71.32
19795;BME280;10057;59.402;17.866;2023-03-01T06:10:37;102425.66;;;-0.30;71.26
19795;BME280;10057;59.402;17.866;2023-03-01T06:13:04;102432.53;;;-0.32;71.39
19795;BME280;10057;59.402;17.866;2023-03-01T06:15:31;102439.47;;;-0.33;71.41
19795;BME280;10057;59.402;17.866;2023-03-01T06:17:58;102431.59;;;-0.34;71.22
19795;BME280;10057;59.402;17.866;2023-03-01T06:20:27;102437.81;;;-0.31;71.64
19795;BME280;10057;59.402;17.866;2023-03-01T06:22:54;102448.25;;;-0.31;71.79
19795;BME280;10057;59.402;17.866;2023-03-01T06:25:23;102443.09;;;-0.28;71.67
19795;BME280;10057;59.402;17.866;2023-03-01T06:27:50;102438.88;;;-0.24;71.66
19795;BME280;10057;59.402;17.866;2023-03-01T06:30:20;102444.22;;;-0.21;71.46
19795;BME280;10057;59.402;17.866;2023-03-01T06:32:47;102445.13;;;-0.20;71.71
19795;BME280;10057;59.402;17.866;2023-03-01T06:35:16;102439.97;;;-0.17;71.44
19795;BME280;10057;59.402;17.866;2023-03-01T06:37:47;102451.41;;;-0.14;71.53
19795;BME280;10057;59.402;17.866;2023-03-01T06:40:15;102441.03;;;-0.12;71.77
19795;BME280;10057;59.402;17.866;2023-03-01T06:42:44;102448.91;;;-0.11;71.67
19795;BME280;10057;59.402;17.866;2023-03-01T06:45:14;102457.56;;;-0.12;71.60
19795;BME280;10057;59.402;17.866;2023-03-01T06:47:41;102454.13;;;-0.11;71.73
19795;BME280;10057;59.402;17.866;2023-03-01T06:50:08;102452.56;;;-0.06;71.85
19795;BME280;10057;59.402;17.866;2023-03-01T06:52:35;102444.84;;;-0.03;72.03
19795;BME280;10057;59.402;17.866;2023-03-01T06:55:02;102444.97;;;0.01;72.25
19795;BME280;10057;59.402;17.866;2023-03-01T06:57:29;102442.44;;;0.04;71.97
19795;BME280;10057;59.402;17.866;2023-03-01T06:59:55;102445.13;;;0.07;72.11
19795;BME280;10057;59.402;17.866;2023-03-01T07:02:23;102443.50;;;0.10;72.02
19795;BME280;10057;59.402;17.866;2023-03-01T07:04:50;102447.13;;;0.14;71.94
19795;BME280;10057;59.402;17.866;2023-03-01T07:07:18;102447.16;;;0.15;72.11
19795;BME280;10057;59.402;17.866;2023-03-01T07:09:45;102447.31;;;0.20;72.20
19795;BME280;10057;59.402;17.866;2023-03-01T07:12:12;102448.28;;;0.23;71.85
19795;BME280;10057;59.402;17.866;2023-03-01T07:14:39;102442.34;;;0.28;71.93
19795;BME280;10057;59.402;17.866;2023-03-01T07:17:06;102443.38;;;0.33;72.09
19795;BME280;10057;59.402;17.866;2023-03-01T07:19:33;102442.63;;;0.37;72.02
19795;BME280;10057;59.402;17.866;2023-03-01T07:22:00;102440.13;;;0.40;72.10
19795;BME280;10057;59.402;17.866;2023-03-01T07:24:27;102439.34;;;0.42;71.98
19795;BME280;10057;59.402;17.866;2023-03-01T07:26:53;102448.19;;;0.47;71.91
19795;BME280;10057;59.402;17.866;2023-03-01T07:29:20;102445.75;;;0.52;71.92
19795;BME280;10057;59.402;17.866;2023-03-01T07:31:47;102442.38;;;0.56;71.88
19795;BME280;10057;59.402;17.866;2023-03-01T07:34:14;102452.06;;;0.60;71.79
19795;BME280;10057;59.402;17.866;2023-03-01T07:36:42;102450.44;;;0.64;71.74
19795;BME280;10057;59.402;17.866;2023-03-01T07:39:10;102452.31;;;0.68;71.91
19795;BME280;10057;59.402;17.866;2023-03-01T07:41:37;102454.19;;;0.72;71.80
19795;BME280;10057;59.402;17.866;2023-03-01T07:44:04;102450.81;;;0.76;71.60
19795;BME280;10057;59.402;17.866;2023-03-01T07:46:31;102447.56;;;0.83;71.66
19795;BME280;10057;59.402;17.866;2023-03-01T07:48:59;102442.44;;;0.86;71.81
19795;BME280;10057;59.402;17.866;2023-03-01T07:51:26;102449.59;;;0.93;71.80
19795;BME280;10057;59.402;17.866;2023-03-01T07:53:52;102437.44;;;0.95;71.64
19795;BME280;10057;59.402;17.866;2023-03-01T07:56:19;102440.25;;;1.02;71.72
19795;BME280;10057;59.402;17.866;2023-03-01T07:58:48;102440.47;;;1.09;71.60
19795;BME280;10057;59.402;17.866;2023-03-01T08:01:19;102440.63;;;1.15;71.65
19795;BME280;10057;59.402;17.866;2023-03-01T08:03:46;102438.19;;;1.22;71.48
19795;BME280;10057;59.402;17.866;2023-03-01T08:06:15;102434.78;;;1.24;71.31
19795;BME280;10057;59.402;17.866;2023-03-01T08:08:43;102438.47;;;1.31;70.89
19795;BME280;10057;59.402;17.866;2023-03-01T08:11:11;102433.44;;;1.38;71.50
19795;BME280;10057;59.402;17.866;2023-03-01T08:13:38;102434.50;;;1.45;70.84
19795;BME280;10057;59.402;17.866;2023-03-01T08:16:08;102431.19;;;1.51;70.90
19795;BME280;10057;59.402;17.866;2023-03-01T08:18:36;102437.47;;;1.59;70.93
19795;BME280;10057;59.402;17.866;2023-03-01T08:21:04;102431.56;;;1.66;71.30
19795;BME280;10057;59.402;17.866;2023-03-01T08:23:31;102435.22;;;1.73;70.69
19795;BME280;10057;59.402;17.866;2023-03-01T08:26:09;102440.66;;;1.80;70.65
19795;BME280;10057;59.402;17.866;2023-03-01T08:28:36;102443.44;;;1.86;70.59
19795;BME280;10057;59.402;17.866;2023-03-01T08:31:22;102441.84;;;1.92;70.36
19795;BME280;10057;59.402;17.866;2023-03-01T08:33:52;102440.28;;;2.00;70.29
19795;BME280;10057;59.402;17.866;2023-03-01T08:36:27;102439.59;;;2.07;70.21
19795;BME280;10057;59.402;17.866;2023-03-01T08:38:54;102436.25;;;2.12;70.55
19795;BME280;10057;59.402;17.866;2023-03-01T08:41:21;102429.44;;;2.19;69.77
19795;BME280;10057;59.402;17.866;2023-03-01T08:43:48;102430.47;;;2.27;69.76
19795;BME280;10057;59.402;17.866;2023-03-01T08:46:15;102421.91;;;2.33;69.65
19795;BME280;10057;59.402;17.866;2023-03-01T08:48:42;102422.94;;;2.41;69.85
19795;BME280;10057;59.402;17.866;2023-03-01T08:51:14;102421.44;;;2.52;70.41
19795;BME280;10057;59.402;17.866;2023-03-01T08:53:43;102417.38;;;2.65;70.58
19795;BME280;10057;59.402;17.866;2023-03-01T08:56:11;102420.19;;;2.74;70.20
19795;BME280;10057;59.402;17.866;2023-03-01T08:58:38;102423.06;;;2.87;69.92
19795;BME280;10057;59.402;17.866;2023-03-01T09:01:12;102409.22;;;2.94;69.70
19795;BME280;10057;59.402;17.866;2023-03-01T09:03:40;102414.59;;;3.00;69.10
19795;BME280;10057;59.402;17.866;2023-03-01T09:06:08;102407.66;;;3.02;69.33
19795;BME280;10057;59.402;17.866;2023-03-01T09:08:36;102407.75;;;3.05;68.96
19795;BME280;10057;59.402;17.866;2023-03-01T09:11:04;102408.75;;;3.13;68.83
19795;BME280;10057;59.402;17.866;2023-03-01T09:13:32;102405.41;;;3.20;68.33
19795;BME280;10057;59.402;17.866;2023-03-01T09:16:01;102393.28;;;3.27;68.61
19795;BME280;10057;59.402;17.866;2023-03-01T09:18:28;102394.34;;;3.35;68.38
19795;BME280;10057;59.402;17.866;2023-03-01T09:21:06;102396.22;;;3.44;68.17
19795;BME280;10057;59.402;17.866;2023-03-01T09:23:44;102389.41;;;3.53;68.25
19795;BME280;10057;59.402;17.866;2023-03-01T09:26:14;102390.47;;;3.63;67.93
19795;BME280;10057;59.402;17.866;2023-03-01T09:28:43;102386.22;;;3.71;67.77
19795;BME280;10057;59.402;17.866;2023-03-01T09:31:11;102379.38;;;3.79;67.22
19795;BME280;10057;59.402;17.866;2023-03-01T09:33:42;102381.25;;;3.87;67.32
19795;BME280;10057;59.402;17.866;2023-03-01T09:36:14;102376.16;;;3.97;66.63
19795;BME280;10057;59.402;17.866;2023-03-01T09:38:42;102379.84;;;4.09;66.46
19795;BME280;10057;59.402;17.866;2023-03-01T09:44:10;102375.75;;;4.27;66.16
19795;BME280;10057;59.402;17.866;2023-03-01T09:46:44;102366.22;;;4.34;66.07
19795;BME280;10057;59.402;17.866;2023-03-01T09:49:21;102365.44;;;4.41;65.79
19795;BME280;10057;59.402;17.866;2023-03-01T09:52:03;102361.06;;;4.43;65.79
19795;BME280;10057;59.402;17.866;2023-03-01T09:54:36;102362.00;;;4.47;65.25
19795;BME280;10057;59.402;17.866;2023-03-01T09:57:19;102359.41;;;4.50;65.32
19795;BME280;10057;59.402;17.866;2023-03-01T10:04:55;102359.69;;;4.68;65.04
19795;BME280;10057;59.402;17.866;2023-03-01T10:07:39;102348.38;;;4.77;64.77
19795;BME280;10057;59.402;17.866;2023-03-01T10:10:25;102352.00;;;4.87;64.49
19795;BME280;10057;59.402;17.866;2023-03-01T10:12:52;102352.97;;;4.93;63.92
19795;BME280;10057;59.402;17.866;2023-03-01T10:15:34;102341.59;;;4.99;63.65
19795;BME280;10057;59.402;17.866;2023-03-01T10:18:06;102338.16;;;5.03;63.32
19795;BME280;10057;59.402;17.866;2023-03-01T10:20:45;102334.69;;;5.09;62.77
19795;BME280;10057;59.402;17.866;2023-03-01T10:23:13;102336.50;;;5.11;62.50
19795;BME280;10057;59.402;17.866;2023-03-01T10:26:21;102333.91;;;5.14;62.52
19795;BME280;10057;59.402;17.866;2023-03-01T10:29:07;102331.34;;;5.20;62.59
19795;BME280;10057;59.402;17.866;2023-03-01T10:31:51;102328.78;;;5.27;61.90
19795;BME280;10057;59.402;17.866;2023-03-01T10:36:51;102332.34;;;5.36;61.68
19795;BME280;10057;59.402;17.866;2023-03-01T10:39:24;102336.78;;;5.42;62.10
19795;BME280;10057;59.402;17.866;2023-03-01T10:44:47;102322.88;;;5.55;61.98
19795;BME280;10057;59.402;17.866;2023-03-01T10:47:26;102318.53;;;5.59;61.43
19795;BME280;10057;59.402;17.866;2023-03-01T10:50:30;102314.16;;;5.64;61.10
19795;BME280;10057;59.402;17.866;2023-03-01T10:53:01;102324.75;;;5.68;60.82
19795;BME280;10057;59.402;17.866;2023-03-01T10:55:36;102316.84;;;5.70;60.99
19795;BME280;10057;59.402;17.866;2023-03-01T11:00:56;102317.84;;;5.83;61.00
19795;BME280;10057;59.402;17.866;2023-03-01T11:03:32;102314.38;;;5.88;60.23
19795;BME280;10057;59.402;17.866;2023-03-01T11:06:08;102332.81;;;5.88;60.13
19795;BME280;10057;59.402;17.866;2023-03-01T11:08:48;102320.50;;;5.89;60.11
19795;BME280;10057;59.402;17.866;2023-03-01T11:11:33;102319.69;;;5.93;60.01
19795;BME280;10057;59.402;17.866;2023-03-01T11:14:12;102316.22;;;6.00;59.33
19795;BME280;10057;59.402;17.866;2023-03-01T11:17:11;102307.41;;;5.98;59.75
19795;BME280;10057;59.402;17.866;2023-03-01T11:19:39;102309.19;;;6.01;59.08
19795;BME280;10057;59.402;17.866;2023-03-01T11:24:47;102304.81;;;6.01;58.68
19795;BME280;10057;59.402;17.866;2023-03-01T11:27:31;102306.59;;;6.04;58.84
19795;BME280;10057;59.402;17.866;2023-03-01T11:30:03;102305.72;;;6.08;58.63
19795;BME280;10057;59.402;17.866;2023-03-01T11:32:46;102299.63;;;6.13;58.67
19795;BME280;10057;59.402;17.866;2023-03-01T11:35:18;102308.44;;;6.18;58.75
19795;BME280;10057;59.402;17.866;2023-03-01T11:43:14;102302.41;;;6.36;58.16
19795;BME280;10057;59.402;17.866;2023-03-01T11:48:30;102295.38;;;6.41;59.11
19795;BME280;10057;59.402;17.866;2023-03-01T11:51:24;102281.38;;;6.50;58.97
19795;BME280;10057;59.402;17.866;2023-03-01T11:54:21;102284.00;;;6.59;58.35
19795;BME280;10057;59.402;17.866;2023-03-01T12:01:57;102267.34;;;6.67;57.94
19795;BME280;10057;59.402;17.866;2023-03-01T12:10:25;102269.16;;;6.78;58.15
19795;BME280;10057;59.402;17.866;2023-03-01T12:18:57;102255.06;;;6.75;57.07
19795;BME280;10057;59.402;17.866;2023-03-01T12:21:56;102248.91;;;6.73;57.04
19795;BME280;10057;59.402;17.866;2023-03-01T12:30:07;102233.09;;;6.82;57.06
19795;BME280;10057;59.402;17.866;2023-03-01T12:35:51;102230.47;;;6.85;56.81
19795;BME280;10057;59.402;17.866;2023-03-01T12:46:36;102218.16;;;6.92;56.24
19795;BME280;10057;59.402;17.866;2023-03-01T12:51:38;102206.75;;;6.99;56.78
19795;BME280;10057;59.402;17.866;2023-03-01T12:54:14;102213.78;;;7.04;56.65
19795;BME280;10057;59.402;17.866;2023-03-01T12:56:41;102210.25;;;7.10;56.20
19795;BME280;10057;59.402;17.866;2023-03-01T12:59:19;102205.84;;;7.13;56.60
19795;BME280;10057;59.402;17.866;2023-03-01T13:13:02;102196.19;;;7.37;56.34
19795;BME280;10057;59.402;17.866;2023-03-01T13:15:32;102190.00;;;7.41;56.37
19795;BME280;10057;59.402;17.866;2023-03-01T13:18:03;102188.25;;;7.46;56.25
19795;BME280;10057;59.402;17.866;2023-03-01T13:23:13;102183.81;;;7.54;56.04
19795;BME280;10057;59.402;17.866;2023-03-01T13:31:10;102184.72;;;7.63;55.48
19795;BME280;10057;59.402;17.866;2023-03-01T13:38:58;102171.47;;;7.69;55.33
19795;BME280;10057;59.402;17.866;2023-03-01T13:44:21;102180.28;;;7.71;54.52
19795;BME280;10057;59.402;17.866;2023-03-01T13:49:47;102163.53;;;7.69;54.51
19795;BME280;10057;59.402;17.866;2023-03-01T13:55:05;102155.63;;;7.69;54.27
19795;BME280;10057;59.402;17.866;2023-03-01T13:57:37;102149.47;;;7.73;54.39
19795;BME280;10057;59.402;17.866;2023-03-01T14:03:16;102148.56;;;7.77;54.21
19795;BME280;10057;59.402;17.866;2023-03-01T14:06:12;102144.13;;;7.82;54.22
19795;BME280;10057;59.402;17.866;2023-03-01T14:08:44;102147.66;;;7.87;54.18
19795;BME280;10057;59.402;17.866;2023-03-01T14:14:30;102152.00;;;7.97;53.77
19795;BME280;10057;59.402;17.866;2023-03-01T14:20:00;102145.81;;;8.04;53.30
19795;BME280;10057;59.402;17.866;2023-03-01T14:22:32;102145.81;;;8.07;53.30
19795;BME280;10057;59.402;17.866;2023-03-01T14:25:02;102149.31;;;8.11;53.35
19795;BME280;10057;59.402;17.866;2023-03-01T14:27:39;102141.34;;;8.13;53.29
19795;BME280;10057;59.402;17.866;2023-03-01T14:30:15;102138.72;;;8.14;53.17
19795;BME280;10057;59.402;17.866;2023-03-01T14:32:56;102134.31;;;8.18;53.25
19795;BME280;10057;59.402;17.866;2023-03-01T14:35:32;102143.09;;;8.20;52.63
19795;BME280;10057;59.402;17.866;2023-03-01T14:37:59;102143.09;;;8.20;52.33
19795;BME280;10057;59.402;17.866;2023-03-01T14:42:56;102137.81;;;8.18;52.72
19795;BME280;10057;59.402;17.866;2023-03-01T14:45:26;102134.28;;;8.19;52.68
19795;BME280;10057;59.402;17.866;2023-03-01T14:47:54;102131.63;;;8.19;52.94
19795;BME280;10057;59.402;17.866;2023-03-01T14:50:30;102127.22;;;8.17;52.30
19795;BME280;10057;59.402;17.866;2023-03-01T14:52:59;102128.13;;;8.17;52.62
19795;BME280;10057;59.402;17.866;2023-03-01T14:55:40;102130.75;;;8.19;52.91
19795;BME280;10057;59.402;17.866;2023-03-01T14:58:14;102118.44;;;8.18;53.02
19795;BME280;10057;59.402;17.866;2023-03-01T15:01:10;102115.78;;;8.16;52.50